createdAt,value
2019-01-09T00:01:12.271Z,78.80
2019-01-09T00:03:40.098Z,78.90
2019-01-09T00:06:13.198Z,79.30
2019-01-09T00:09:00.444Z,78.70
2019-01-09T00:11:28.249Z,79.00
2019-01-09T00:13:56.151Z,78.90
2019-01-09T00:16:24.425Z,78.30
2019-01-09T00:18:52.346Z,76.70
2019-01-09T00:21:20.204Z,77.10
2019-01-09T00:23:48.162Z,76.50
2019-01-09T00:26:15.971Z,76.40
2019-01-09T00:28:43.847Z,75.10
2019-01-09T00:31:11.713Z,75.60
2019-01-09T00:33:39.535Z,75.20
2019-01-09T00:36:07.361Z,75.80
2019-01-09T00:38:35.263Z,75.30
2019-01-09T00:41:03.155Z,75.20
2019-01-09T00:43:30.988Z,74.00
2019-01-09T00:45:58.811Z,73.90
2019-01-09T00:48:26.639Z,74.10
2019-01-09T00:50:54.458Z,74.10
2019-01-09T00:53:22.359Z,74.30
2019-01-09T00:55:50.182Z,74.40
2019-01-09T00:58:18.027Z,74.60
2019-01-09T01:00:45.828Z,74.20
2019-01-09T01:03:45.510Z,74.70
2019-01-09T01:06:59.901Z,74.70
2019-01-09T01:10:42.770Z,75.70
2019-01-09T01:14:04.909Z,75.50
2019-01-09T01:17:25.261Z,75.50
2019-01-09T01:20:12.706Z,75.40
2019-01-09T01:23:43.278Z,76.30
2019-01-09T01:26:33.945Z,76.40
2019-01-09T01:30:20.157Z,75.30
2019-01-09T01:33:41.075Z,76.40
2019-01-09T01:37:21.352Z,76.40
2019-01-09T01:40:25.157Z,75.70
2019-01-09T01:43:52.186Z,75.40
2019-01-09T01:47:07.164Z,76.40
2019-01-09T01:49:57.062Z,75.50
2019-01-09T01:53:28.445Z,75.70
2019-01-09T01:56:47.879Z,76.40
2019-01-09T01:59:38.242Z,77.00
2019-01-09T02:03:03.439Z,76.30
2019-01-09T02:06:12.989Z,76.40
2019-01-09T02:09:20.106Z,76.40
2019-01-09T02:12:20.845Z,76.40
2019-01-09T02:16:06.466Z,76.40
2019-01-09T02:19:04.101Z,76.40
2019-01-09T02:22:11.729Z,76.40
2019-01-09T02:25:23.081Z,76.40
2019-01-09T02:28:40.426Z,76.40
2019-01-09T02:31:40.214Z,76.40
2019-01-09T02:34:08.004Z,76.70
2019-01-09T02:36:36.020Z,76.70
2019-01-09T02:39:05.142Z,76.60
2019-01-09T02:41:32.938Z,78.20
2019-01-09T02:44:00.761Z,77.00
2019-01-09T02:46:28.678Z,77.10
2019-01-09T02:48:56.499Z,77.10
2019-01-09T02:51:24.332Z,77.40
2019-01-09T02:53:52.115Z,77.90
2019-01-09T02:56:20.003Z,77.90
2019-01-09T02:58:47.765Z,76.40
2019-01-09T03:01:15.547Z,77.60
2019-01-09T03:03:43.377Z,77.20
2019-01-09T03:06:11.345Z,76.40
2019-01-09T03:08:39.172Z,76.40
2019-01-09T03:11:06.999Z,76.40
2019-01-09T03:13:34.865Z,76.40
2019-01-09T03:16:02.675Z,76.40
2019-01-09T03:18:30.521Z,76.50
2019-01-09T03:20:58.274Z,76.50
2019-01-09T03:23:26.079Z,76.40
2019-01-09T03:25:53.895Z,76.40
2019-01-09T03:28:21.747Z,76.50
2019-01-09T03:30:49.744Z,76.40
2019-01-09T03:33:17.558Z,76.50
2019-01-09T03:35:45.392Z,75.80
2019-01-09T03:38:13.250Z,75.40
2019-01-09T03:40:41.059Z,77.40
2019-01-09T03:43:08.852Z,75.70
2019-01-09T03:45:36.658Z,74.30
2019-01-09T03:48:04.468Z,73.60
2019-01-09T03:50:32.298Z,71.20
2019-01-09T03:53:00.091Z,72.50
2019-01-09T03:55:27.855Z,71.90
2019-01-09T03:58:00.881Z,70.70
2019-01-09T04:00:28.682Z,70.40
2019-01-09T04:02:56.470Z,71.30
2019-01-09T04:05:24.242Z,70.80
2019-01-09T04:07:52.230Z,70.00
2019-01-09T04:10:20.037Z,68.10
2019-01-09T04:12:47.830Z,71.20
2019-01-09T04:15:15.629Z,68.10
2019-01-09T04:17:43.590Z,69.20
2019-01-09T04:20:11.350Z,68.90
2019-01-09T04:22:39.126Z,68.80
2019-01-09T04:25:06.969Z,67.00
2019-01-09T04:27:34.812Z,68.00
2019-01-09T04:30:04.399Z,68.00
2019-01-09T04:32:51.642Z,69.00
2019-01-09T04:35:19.469Z,68.20
2019-01-09T04:37:47.320Z,68.50
2019-01-09T04:40:15.111Z,68.00
2019-01-09T04:42:42.869Z,68.50
2019-01-09T04:45:10.652Z,69.10
2019-01-09T04:47:38.428Z,69.50
2019-01-09T04:50:06.300Z,70.10
2019-01-09T04:52:34.089Z,71.10
2019-01-09T04:55:01.909Z,71.10
2019-01-09T04:57:29.703Z,70.10
2019-01-09T04:59:57.465Z,70.60
2019-01-09T05:02:25.268Z,71.50
2019-01-09T05:04:53.099Z,71.10
2019-01-09T05:07:20.997Z,72.50
2019-01-09T05:09:48.806Z,74.70
2019-01-09T05:12:16.596Z,74.70
2019-01-09T05:14:44.362Z,75.00
2019-01-09T05:17:12.371Z,75.90
2019-01-09T05:19:40.159Z,78.20
2019-01-09T05:22:07.980Z,80.20
2019-01-09T05:24:35.807Z,80.80
2019-01-09T05:27:03.613Z,81.20
2019-01-09T05:29:31.433Z,80.70
2019-01-09T05:31:59.222Z,80.60
2019-01-09T05:34:27.029Z,80.70
2019-01-09T05:36:54.810Z,79.20
2019-01-09T05:39:24.934Z,78.40
2019-01-09T05:41:52.713Z,77.40
2019-01-09T05:44:20.567Z,76.40
2019-01-09T05:46:53.559Z,75.60
2019-01-09T05:49:21.397Z,75.60
2019-01-09T05:51:49.273Z,76.20
2019-01-09T05:54:17.069Z,73.40
2019-01-09T05:56:45.257Z,74.10
2019-01-09T05:59:13.068Z,75.00
2019-01-09T06:01:40.912Z,72.30
2019-01-09T06:04:08.742Z,70.70
2019-01-09T06:06:36.544Z,71.80
2019-01-09T06:09:05.876Z,71.90
2019-01-09T06:11:33.717Z,67.50
2019-01-09T06:14:01.508Z,68.30
2019-01-09T06:16:29.366Z,66.70
2019-01-09T06:18:57.160Z,65.40
2019-01-09T06:21:24.956Z,67.80
2019-01-09T06:23:52.832Z,66.40
2019-01-09T06:26:20.874Z,66.50
2019-01-09T06:28:56.463Z,66.70
2019-01-09T06:31:31.453Z,65.70
2019-01-09T06:33:59.268Z,65.40
2019-01-09T06:36:27.304Z,65.40
2019-01-09T06:38:55.105Z,65.40
2019-01-09T06:41:22.882Z,64.60
2019-01-09T06:43:50.710Z,65.50
2019-01-09T06:46:19.195Z,65.70
2019-01-09T06:48:47.001Z,65.40
2019-01-09T06:51:14.802Z,65.50
2019-01-09T06:53:42.678Z,64.00
2019-01-09T06:56:10.473Z,65.50
2019-01-09T06:58:38.251Z,65.50
2019-01-09T07:01:06.067Z,65.70
2019-01-09T07:03:35.078Z,65.60
2019-01-09T07:06:02.920Z,65.60
2019-01-09T07:08:30.732Z,65.50
2019-01-09T07:10:58.595Z,65.50
2019-01-09T07:13:26.357Z,65.50
2019-01-09T07:15:54.159Z,65.60
2019-01-09T07:18:21.963Z,65.60
2019-01-09T07:20:49.723Z,65.80
2019-01-09T07:23:17.598Z,65.80
2019-01-09T07:25:45.371Z,65.40
2019-01-09T07:28:13.495Z,67.60
2019-01-09T07:30:41.320Z,68.90
2019-01-09T07:33:09.159Z,68.70
2019-01-09T07:35:36.993Z,69.90
2019-01-09T07:38:04.761Z,70.70
2019-01-09T07:40:32.626Z,70.30
2019-01-09T07:43:00.422Z,72.00
2019-01-09T07:45:28.254Z,71.90
2019-01-09T07:47:56.088Z,72.40
2019-01-09T07:50:23.912Z,71.30
2019-01-09T07:52:51.729Z,72.30
2019-01-09T07:55:19.447Z,70.60
2019-01-09T07:58:11.997Z,71.80
2019-01-09T08:00:39.762Z,69.40
2019-01-09T08:03:07.536Z,65.30
2019-01-09T08:05:35.297Z,63.70
2019-01-09T08:08:03.116Z,63.00
2019-01-09T08:10:30.893Z,63.30
2019-01-09T08:12:58.657Z,63.50
2019-01-09T08:15:26.520Z,60.80
2019-01-09T08:17:54.263Z,60.90
2019-01-09T08:20:22.118Z,61.10
2019-01-09T08:22:49.893Z,60.80
2019-01-09T08:25:17.749Z,61.70
2019-01-09T08:27:45.856Z,60.00
2019-01-09T08:30:13.653Z,60.40
2019-01-09T08:32:41.484Z,60.80
2019-01-09T08:35:09.288Z,60.60
2019-01-09T08:37:37.249Z,60.70
2019-01-09T08:40:07.291Z,61.10
2019-01-09T08:42:35.058Z,60.10
2019-01-09T08:45:02.951Z,61.50
2019-01-09T08:47:30.740Z,61.80
2019-01-09T08:49:58.563Z,62.40
2019-01-09T08:52:26.373Z,62.50
2019-01-09T08:54:54.185Z,60.20
2019-01-09T08:57:22.085Z,61.60
2019-01-09T08:59:49.900Z,62.30
2019-01-09T09:02:17.736Z,61.20
2019-01-09T09:04:45.504Z,62.50
2019-01-09T09:07:13.472Z,61.80
2019-01-09T09:09:41.699Z,62.10
2019-01-09T09:12:09.456Z,63.60
2019-01-09T09:14:37.225Z,63.00
2019-01-09T09:17:05.073Z,63.60
2019-01-09T09:19:32.855Z,62.30
2019-01-09T09:22:00.717Z,62.00
2019-01-09T09:24:28.474Z,62.00
2019-01-09T09:26:56.270Z,62.50
2019-01-09T09:29:24.103Z,61.50
2019-01-09T09:31:51.906Z,61.60
2019-01-09T09:34:19.733Z,61.80
2019-01-09T09:36:47.542Z,59.80
2019-01-09T09:39:15.351Z,59.30
2019-01-09T09:41:43.104Z,59.40
2019-01-09T09:44:10.909Z,59.00
2019-01-09T09:46:43.850Z,58.60
2019-01-09T09:49:11.673Z,58.20
2019-01-09T09:51:39.458Z,56.70
2019-01-09T09:54:07.285Z,56.00
2019-01-09T09:56:35.184Z,56.70
2019-01-09T09:59:03.047Z,57.00
2019-01-09T10:01:30.851Z,55.40
2019-01-09T10:03:58.609Z,55.30
2019-01-09T10:06:26.598Z,55.30
2019-01-09T10:08:54.369Z,55.50
2019-01-09T10:11:22.200Z,55.40
2019-01-09T10:13:50.039Z,52.80
2019-01-09T10:16:17.952Z,52.80
2019-01-09T10:18:45.783Z,54.40
2019-01-09T10:21:13.632Z,51.80
2019-01-09T10:23:41.467Z,52.20
2019-01-09T10:26:14.264Z,51.30
2019-01-09T10:28:42.061Z,51.60
2019-01-09T10:31:09.884Z,49.80
2019-01-09T10:33:37.626Z,48.00
2019-01-09T10:36:05.541Z,49.00
2019-01-09T10:38:37.964Z,49.50
2019-01-09T10:41:03.079Z,47.90
2019-01-09T10:43:30.878Z,49.50
2019-01-09T10:45:58.675Z,48.40
2019-01-09T10:48:26.462Z,48.60
2019-01-09T10:50:54.324Z,47.10
2019-01-09T10:53:22.126Z,49.10
2019-01-09T10:55:49.901Z,48.70
2019-01-09T10:58:22.898Z,48.90
2019-01-09T11:00:50.791Z,49.30
2019-01-09T11:03:18.585Z,49.20
2019-01-09T11:05:46.410Z,48.60
2019-01-09T11:08:14.190Z,48.10
2019-01-09T11:10:42.005Z,48.70
2019-01-09T11:13:09.782Z,49.60
2019-01-09T11:15:57.070Z,51.10
2019-01-09T11:18:24.851Z,51.60
2019-01-09T11:20:52.652Z,52.00
2019-01-09T11:23:20.410Z,52.70
2019-01-09T11:25:48.254Z,51.40
2019-01-09T11:28:21.228Z,52.40
2019-01-09T11:30:49.039Z,53.20
2019-01-09T11:33:16.843Z,52.70
2019-01-09T11:35:44.612Z,53.50
2019-01-09T11:38:12.579Z,53.10
2019-01-09T11:40:40.384Z,53.80
2019-01-09T11:43:08.186Z,54.20
2019-01-09T11:45:35.997Z,54.20
2019-01-09T11:48:03.840Z,54.80
2019-01-09T11:50:31.735Z,54.00
2019-01-09T11:52:59.475Z,54.50
2019-01-09T11:55:27.313Z,53.30
2019-01-09T11:57:55.276Z,53.90
2019-01-09T12:00:26.146Z,53.70
2019-01-09T12:02:53.931Z,52.40
2019-01-09T12:05:21.802Z,53.40
2019-01-09T12:07:49.560Z,52.90
2019-01-09T12:10:20.029Z,53.40
2019-01-09T12:12:48.064Z,53.00
2019-01-09T12:15:16.795Z,53.30
2019-01-09T12:17:44.603Z,53.00
2019-01-09T12:20:14.588Z,54.40
2019-01-09T12:22:42.607Z,53.20
2019-01-09T12:25:10.928Z,54.20
2019-01-09T12:27:44.423Z,54.80
2019-01-09T12:30:25.917Z,54.80
2019-01-09T12:32:54.130Z,55.70
2019-01-09T12:35:22.299Z,54.80
2019-01-09T12:37:50.310Z,54.70
2019-01-09T12:40:18.201Z,55.90
2019-01-09T12:42:46.038Z,56.00
2019-01-09T12:45:14.500Z,55.60
2019-01-09T12:47:43.690Z,55.50
2019-01-09T12:50:15.783Z,55.50
2019-01-09T12:52:43.760Z,55.40
2019-01-09T12:55:11.547Z,55.60
2019-01-09T12:57:39.339Z,55.30
2019-01-09T13:00:22.823Z,56.10
2019-01-09T13:02:51.172Z,56.00
2019-01-09T13:05:19.639Z,56.30
2019-01-09T13:07:57.812Z,56.10
2019-01-09T13:10:27.978Z,56.00
2019-01-09T13:12:56.255Z,57.40
2019-01-09T13:15:24.003Z,56.70
2019-01-09T13:17:51.802Z,56.70
2019-01-09T13:20:19.602Z,56.30
2019-01-09T13:22:47.504Z,56.90
2019-01-09T13:25:16.045Z,56.00
2019-01-09T13:27:44.581Z,56.80
2019-01-09T13:30:16.254Z,56.70
2019-01-09T13:32:44.318Z,57.60
2019-01-09T13:35:12.257Z,56.90
2019-01-09T13:37:40.272Z,57.70
2019-01-09T13:40:14.778Z,58.10
2019-01-09T13:42:42.984Z,57.70
2019-01-09T13:45:14.723Z,57.00
2019-01-09T13:47:43.028Z,58.20
2019-01-09T13:50:11.521Z,58.10
2019-01-09T13:52:40.931Z,57.90
2019-01-09T13:55:10.795Z,57.80
2019-01-09T13:57:38.724Z,58.40
2019-01-09T14:00:10.959Z,58.70
2019-01-09T14:02:38.817Z,59.20
2019-01-09T14:05:07.189Z,59.90
2019-01-09T14:07:40.482Z,60.50
2019-01-09T14:10:11.670Z,60.50
2019-01-09T14:12:39.607Z,60.60
2019-01-09T14:15:10.589Z,62.20
2019-01-09T14:17:38.409Z,62.40
2019-01-09T14:20:09.107Z,63.20
2019-01-09T14:22:36.979Z,63.80
2019-01-09T14:25:06.424Z,63.60
2019-01-09T14:27:34.693Z,62.90
2019-01-09T14:30:05.868Z,62.80
2019-01-09T14:32:33.756Z,63.70
2019-01-09T14:35:01.714Z,62.90
2019-01-09T14:37:29.606Z,62.90
2019-01-09T14:39:57.678Z,63.50
2019-01-09T14:42:25.546Z,64.20
2019-01-09T14:44:53.369Z,64.30
2019-01-09T14:47:21.229Z,63.50
2019-01-09T14:49:50.873Z,64.50
2019-01-09T14:52:18.714Z,63.60
2019-01-09T14:54:46.502Z,63.30
2019-01-09T14:57:14.301Z,63.70
2019-01-09T14:59:42.135Z,64.00
2019-01-09T15:02:09.968Z,63.60
2019-01-09T15:04:37.838Z,63.90
2019-01-09T15:07:10.816Z,65.30
2019-01-09T15:09:38.640Z,65.30
2019-01-09T15:12:06.417Z,65.10
2019-01-09T15:14:34.349Z,65.30
2019-01-09T15:17:02.203Z,65.40
2019-01-09T15:19:30.130Z,65.10
2019-01-09T15:22:00.870Z,66.10
2019-01-09T15:24:42.347Z,65.30
2019-01-09T15:27:15.670Z,65.20
2019-01-09T15:29:47.099Z,66.10
2019-01-09T15:32:16.514Z,67.30
2019-01-09T15:34:44.503Z,65.80
2019-01-09T15:37:15.448Z,66.40
2019-01-09T15:39:45.192Z,67.20
2019-01-09T15:42:12.991Z,67.70
2019-01-09T15:45:00.389Z,67.60
2019-01-09T15:47:29.715Z,67.90
2019-01-09T15:50:00.567Z,67.10
2019-01-09T15:52:30.505Z,67.20
2019-01-09T15:55:01.140Z,67.50
2019-01-09T15:57:33.994Z,67.20
2019-01-09T16:00:07.217Z,67.90
2019-01-09T16:02:35.168Z,68.00
2019-01-09T16:05:03.725Z,68.80
2019-01-09T16:07:39.035Z,68.70
2019-01-09T16:10:14.671Z,68.00
2019-01-09T16:12:41.978Z,68.00
2019-01-09T16:15:18.155Z,69.80
2019-01-09T16:17:51.191Z,68.20
2019-01-09T16:20:20.739Z,68.70
2019-01-09T16:22:48.712Z,69.10
2019-01-09T16:25:17.410Z,68.90
2019-01-09T16:27:52.667Z,69.60
2019-01-09T16:31:31.787Z,68.20
2019-01-09T16:33:59.852Z,69.30
2019-01-09T16:36:29.694Z,69.50
2019-01-09T16:38:57.532Z,69.80
2019-01-09T16:41:25.349Z,69.50
2019-01-09T16:43:53.421Z,70.10
2019-01-09T16:46:21.228Z,70.60
2019-01-09T16:48:49.062Z,70.90
2019-01-09T16:51:16.873Z,70.50
2019-01-09T16:53:44.685Z,71.50
2019-01-09T16:56:12.684Z,71.30
2019-01-09T16:58:40.480Z,71.40
2019-01-09T17:01:08.305Z,72.40
2019-01-09T17:03:36.150Z,71.80
2019-01-09T17:06:04.570Z,71.20
2019-01-09T17:08:32.347Z,70.80
2019-01-09T17:11:00.220Z,70.10
2019-01-09T17:13:28.450Z,70.50
2019-01-09T17:15:56.285Z,70.20
2019-01-09T17:18:24.121Z,69.60
2019-01-09T17:20:51.944Z,70.20
2019-01-09T17:23:19.796Z,69.10
2019-01-09T17:25:47.621Z,68.70
2019-01-09T17:28:15.764Z,70.00
2019-01-09T17:30:43.502Z,68.50
2019-01-09T17:33:11.272Z,68.20
2019-01-09T17:35:39.112Z,68.00
2019-01-09T17:38:06.940Z,68.50
2019-01-09T17:40:41.006Z,68.00
2019-01-09T17:43:04.867Z,68.90
2019-01-09T17:45:32.656Z,69.10
2019-01-09T17:48:00.511Z,68.00
2019-01-09T17:50:33.664Z,67.70
2019-01-09T17:53:01.510Z,68.60
2019-01-09T17:55:29.343Z,68.00
2019-01-09T17:57:57.271Z,68.20
2019-01-09T18:00:29.288Z,66.80
2019-01-09T18:02:57.105Z,68.00
2019-01-09T18:05:24.913Z,67.70
2019-01-09T18:07:57.812Z,67.30
2019-01-09T18:10:25.899Z,67.60
2019-01-09T18:12:53.799Z,67.20
2019-01-09T18:15:23.268Z,68.30
2019-01-09T18:17:56.246Z,67.10
2019-01-09T18:20:24.084Z,67.40
2019-01-09T18:22:51.891Z,67.20
2019-01-09T18:25:22.613Z,67.50
2019-01-09T18:27:56.150Z,67.00
2019-01-09T18:30:37.926Z,66.60
2019-01-09T18:33:20.680Z,66.40
2019-01-09T18:36:30.763Z,65.90
2019-01-09T18:39:43.351Z,65.70
2019-01-09T18:43:08.840Z,66.40
2019-01-09T18:46:11.946Z,66.00
2019-01-09T18:49:31.116Z,67.30
2019-01-09T18:53:09.073Z,64.80
2019-01-09T18:55:39.559Z,64.90
2019-01-09T18:58:09.840Z,65.00
2019-01-09T19:00:40.097Z,65.20
2019-01-09T19:03:11.750Z,66.20
2019-01-09T19:05:44.573Z,65.80
2019-01-09T19:08:51.787Z,67.50
2019-01-09T19:11:19.941Z,65.90
2019-01-09T19:14:02.176Z,66.60
2019-01-09T19:16:39.352Z,66.40
2019-01-09T19:19:18.027Z,66.70
2019-01-09T19:21:48.367Z,67.50
2019-01-09T19:24:16.226Z,66.60
2019-01-09T19:26:49.768Z,66.40
2019-01-09T19:29:22.831Z,67.00
2019-01-09T19:31:52.641Z,65.10
2019-01-09T19:34:20.455Z,65.80
2019-01-09T19:36:48.403Z,66.60
2019-01-09T19:39:16.174Z,65.80
2019-01-09T19:41:51.879Z,65.80
2019-01-09T19:44:22.680Z,65.50
2019-01-09T19:46:50.526Z,66.10
2019-01-09T19:49:18.368Z,65.60
2019-01-09T19:51:46.316Z,65.40
2019-01-09T19:54:14.188Z,66.80
2019-01-09T19:56:43.997Z,65.90
2019-01-09T19:59:11.852Z,66.10
2019-01-09T20:01:39.726Z,65.60
2019-01-09T20:04:07.678Z,66.00
2019-01-09T20:06:35.501Z,65.30
2019-01-09T20:09:07.458Z,66.40
2019-01-09T20:11:35.377Z,66.00
2019-01-09T20:14:03.415Z,65.70
2019-01-09T20:16:31.478Z,65.10
2019-01-09T20:18:59.339Z,66.40
2019-01-09T20:21:27.158Z,65.90
2019-01-09T20:23:55.144Z,66.10
2019-01-09T20:26:23.307Z,66.00
2019-01-09T20:28:51.130Z,65.10
2019-01-09T20:31:19.118Z,65.00
2019-01-09T20:33:46.944Z,65.80
2019-01-09T20:36:14.753Z,66.10
2019-01-09T20:38:42.684Z,65.00
2019-01-09T20:41:10.709Z,65.50
2019-01-09T20:43:38.697Z,65.00
2019-01-09T20:46:06.507Z,66.10
2019-01-09T20:48:34.570Z,65.00
2019-01-09T20:51:02.891Z,66.20
2019-01-09T20:53:50.250Z,65.70
2019-01-09T20:56:18.103Z,66.70
2019-01-09T20:58:46.025Z,65.10
2019-01-09T21:01:13.944Z,65.80
2019-01-09T21:03:41.849Z,66.10
2019-01-09T21:06:12.376Z,66.00
2019-01-09T21:08:40.258Z,66.20
2019-01-09T21:11:08.202Z,66.70
2019-01-09T21:13:36.022Z,66.90
2019-01-09T21:16:08.227Z,66.80
2019-01-09T21:18:36.024Z,67.20
2019-01-09T21:21:03.869Z,67.60
2019-01-09T21:23:31.700Z,67.60
2019-01-09T21:25:59.670Z,67.70
2019-01-09T21:28:30.478Z,67.50
2019-01-09T21:31:00.159Z,67.60
2019-01-09T21:33:42.988Z,67.60
2019-01-09T21:36:14.143Z,67.60
2019-01-09T21:39:01.469Z,67.70
2019-01-09T21:41:29.281Z,69.00
2019-01-09T21:43:57.114Z,68.00
2019-01-09T21:46:24.936Z,68.00
2019-01-09T21:48:52.885Z,67.50
2019-01-09T21:51:20.714Z,67.50
2019-01-09T21:53:48.616Z,67.90
2019-01-09T21:56:16.522Z,67.40
2019-01-09T21:58:44.396Z,67.80
2019-01-09T22:01:12.156Z,67.50
2019-01-09T22:03:39.980Z,68.20
2019-01-09T22:06:08.048Z,68.30
2019-01-09T22:08:35.911Z,68.30
2019-01-09T22:11:03.740Z,68.10
2019-01-09T22:13:31.858Z,67.40
2019-01-09T22:15:59.696Z,68.00
2019-01-09T22:18:27.546Z,67.50
2019-01-09T22:20:55.376Z,67.70
2019-01-09T22:23:23.763Z,67.80
2019-01-09T22:25:51.708Z,67.60
2019-01-09T22:28:20.365Z,67.80
2019-01-09T22:30:48.185Z,68.00
2019-01-09T22:33:15.955Z,67.60
2019-01-09T22:35:43.792Z,68.00
2019-01-09T22:38:26.751Z,67.30
2019-01-09T22:40:54.579Z,68.00
2019-01-09T22:43:22.397Z,67.20
2019-01-09T22:45:50.178Z,67.60
2019-01-09T22:48:23.370Z,67.00
2019-01-09T22:50:51.128Z,67.30
2019-01-09T22:53:19.017Z,67.60
2019-01-09T22:55:46.772Z,67.50
2019-01-09T22:58:14.664Z,67.80
2019-01-09T23:01:01.290Z,67.10
2019-01-09T23:03:30.057Z,67.50
2019-01-09T23:05:57.969Z,67.70
2019-01-09T23:08:25.791Z,67.40
2019-01-09T23:10:54.966Z,67.70
2019-01-09T23:13:23.335Z,67.70
2019-01-09T23:15:51.165Z,68.40
2019-01-09T23:18:18.940Z,67.30
2019-01-09T23:20:46.796Z,67.90
2019-01-09T23:23:15.279Z,68.00
2019-01-09T23:25:43.173Z,67.80
2019-01-09T23:28:11.044Z,67.30
2019-01-09T23:30:40.164Z,67.80
2019-01-09T23:33:07.966Z,67.70
2019-01-09T23:35:35.762Z,67.40
2019-01-09T23:38:03.575Z,67.20
2019-01-09T23:40:31.396Z,67.30
2019-01-09T23:42:59.259Z,67.50
2019-01-09T23:45:27.102Z,67.10
2019-01-09T23:47:55.149Z,67.30
2019-01-09T23:50:22.948Z,67.50
2019-01-09T23:52:50.802Z,67.90
2019-01-09T23:55:18.565Z,67.80
2019-01-09T23:57:51.472Z,68.30
